Portada
METAR-TAF:

METAR-TAF

Aeroports :

Aeroport de Milà-Malpensa

Milà, Itàlia

latitud: 45-37N, longitud: 008-44E, altitud: 234 m

Observació

L'informe es va fer fa 36 minuts, a les 21:20 UTC
Vent 6 kt del Nord
Temperatura 21°C
Humitat 83%
Pressió 1019 hPa
Visibilitat 10 km o més
sense núvols per sota de 1500 mi sense presència de cumulonimbus.

METAR: LIMC 242120Z 36006KT CAVOK 21/18 Q1019 NOSIG

Hora: 23:56 (21:56 UTC)

Pronòstic

L'informe es va fer fa 4 hores i 56 minuts, a les 17:00 UTC
Pronòstic vàlid del 24 a les 18 UTC al 25 a les 24 UTC
Vent 5 kt amb direcció variable
Visibilitat 10 km o més
Núvols disperses a una alçada de 6000 ft
Probabilitat 30% :
Temporalment
l' 24 a les 20 UTC al 25 a les 02 UTC

TAF: LIMC 241700Z 2418/2524 VRB05KT 9999 SCT060 PROB30 TEMPO 2420/2502

Observacions i pronòstics meteorològics de més de 4000 aeroports (METAR i TAF).

Les estacions disponibles són els punts grocs i vermells al mapa.

Posi el ratolí al punt desitjat per veure el nom de l'estació.

Feu clic per veure les observacions i els pronòstics meteorològics.

Per canviar el mapa: feu clic els botons verds amb una creu de color negre per apropar; al botó verd amb un guió per allunyar la imatge; o en les fletxes verdes per a mapes adjacents.


METAR-TAF: